Informes METAR

LERS - Reus (civ/Mil), Spain
Distancia desde la estación: O 7km
Actualizado: 18/11/2018 19:00
Muy nuboso
Muy nuboso
 Viento del NE
Viento: NE 24 km/h
Temperatura: 13°C
Rocío: 9°C
Humedad: 77%
Barómetro: 1009 hPa
Nubes: Muy nuboso
Visibilidad: 10 km
Detalles de la nube: Poco nuboso 762 m
Muy nuboso 1372 m
2018/11/18 18:00 LERS 181800Z 05013KT 9999 FEW025 BKN045 13/09 Q1009
LEBL - Barcelona Airpor, Spain
Distancia desde la estación: ENE 70km
Actualizado: 18/11/2018 19:00
Lluvia débil, Muy nuboso
Lluvia débil, Muy nuboso
 Viento del ENE
Viento: ENE 30 km/h, Racha: 48 km/h
Temperatura: 14°C
Rocío: 11°C
Humedad: 82%
Barómetro: 1010 hPa
Resumen: Lluvia débil
Nubes: Muy nuboso
Visibilidad: 9 km
Detalles de la nube: Poco nuboso 366 m
Muy nuboso 1524 m
2018/11/18 18:00 LEBL 181800Z 07016G26KT 040V110 9000 -RA FEW012 BKN050 14/11 Q1010 TEMPO 4000 SHRA FEW018TCU
 
LELL - Sabadell, Spain
Distancia desde la estación: ENE 83km
Actualizado: 18/11/2018 19:00
Lluvia intensa, Mist, Muy nuboso
Lluvia intensa, Mist, Muy nuboso
 Viento del NNE
Viento: NNE 9 km/h
Temperatura: 11°C
Rocío: 11°C
Humedad: 100%
Barómetro: 1011 hPa
Resumen: Lluvia intensa, Mist
Nubes: Muy nuboso
Visibilidad: 2 km
Detalles de la nube: Poco nuboso 274 m
Muy nuboso 579 m
Muy nuboso 853 m
2018/11/18 18:00 LELL 181800Z AUTO 03005KT 340V100 2000 +RA BR FEW009/// BKN019/// BKN028/// 11/11 Q1011
LEDA - Lleida/Alguaire, Spain
Distancia desde la estación: NO 90km
Actualizado: 18/11/2018 19:00
Poco nuboso
Poco nuboso
 Viento del ENE
Viento: ENE 30 km/h
Temperatura: 11°C
Rocío: 7°C
Humedad: 77%
Barómetro: 1009 hPa
Nubes: Poco nuboso
Visibilidad: 10 km
Detalles de la nube: Poco nuboso 1280 m
2018/11/18 18:00 LEDA 181800Z AUTO 06016KT 9999 FEW042 11/07 Q1009
 
LESU - Pirineus/La Seu, Spain
Distancia desde la estación: N 134km
Actualizado: 18/11/2018 17:00
NO METAR ACTUAL
Muy nuboso
Muy nuboso
 Viento del ENE
Viento: ENE 11 km/h
Temperatura: 10°C
Wind Chill: 8°C
Rocío: 3°C
Humedad: 62%
Barómetro: 1010 hPa
Nubes: Muy nuboso
Visibilidad: 10 km
Detalles de la nube: Muy nuboso 1372 m
2018/11/18 16:00 LESU 181600Z 06006KT 9999 BKN045 10/03 Q1010
LEGE - Gerona/Costa Bra, Spain
Distancia desde la estación: NE 152km
Actualizado: 18/11/2018 19:00
Lluvia débil, Muy nuboso
Lluvia débil, Muy nuboso
 Viento del N
Viento: N 7 km/h
Temperatura: 11°C
Rocío: 11°C
Humedad: 100%
Barómetro: 1012 hPa
Resumen: Lluvia débil
Nubes: Muy nuboso
Visibilidad: 9 km
Detalles de la nube: Parcialmente nuboso 853 m
Muy nuboso 1128 m
2018/11/18 18:00 LEGE 181800Z 36004KT 330V040 9000 -RA SCT028 BKN037 11/11 Q1012
 
LEHC - Huesca-Pirineos, Spain
Distancia desde la estación: NO 168km
Actualizado: 18/11/2018 19:00
Cubierto
Cubierto
 Viento del ENE
Viento: ENE 15 km/h
Temperatura: 9°C
Wind Chill: 7°C
Rocío: 7°C
Humedad: 87%
Barómetro: 1009 hPa
Nubes: Cubierto
Visibilidad: 10 km
Detalles de la nube: Cubierto 1158 m
2018/11/18 18:00 LEHC 181800Z AUTO 06008KT 9999 OVC038/// 09/07 Q1009
LEZG - Zaragoza (mil/Ci, Spain
Distancia desde la estación: ONO 198km
Actualizado: 18/11/2018 19:00
Lluvia débil, Muy nuboso
Lluvia débil, Muy nuboso
 Viento del E
Viento: E 19 km/h
Temperatura: 12°C
Rocío: 9°C
Humedad: 82%
Barómetro: 1008 hPa
Resumen: Lluvia débil
Nubes: Muy nuboso
Visibilidad: 10 km
Detalles de la nube: Parcialmente nuboso 914 m
Muy nuboso 1372 m
2018/11/18 18:00 LEZG 181800Z 10010KT 070V130 9999 -RA SCT030 BKN045 12/09 Q1008
 
LECH - Calamocha, Spain
Distancia desde la estación: O 216km
Actualizado: 18/11/2018 19:00
Lluvia débil, Cubierto
Lluvia débil, Cubierto
 Viento del NE
Viento: NE 22 km/h
Temperatura: 12°C
Rocío: 11°C
Humedad: 94%
Barómetro: 1007 hPa
Resumen: Lluvia débil
Nubes: Cubierto
Visibilidad: 10 km
Detalles de la nube: Muy nuboso 183 m
Muy nuboso 366 m
Cubierto 1524 m
2018/11/18 18:00 LECH 181800Z AUTO 04012KT 010V080 9999 -RA BKN006/// BKN012/// OVC050/// 12/11 Q1007
LEPA - Palma De Mallorc, Spain
Distancia desde la estación: SE 217km
Actualizado: 18/11/2018 19:00
Poco nuboso
Poco nuboso
 Viento del E
Viento: E 7 km/h
Temperatura: 14°C
Rocío: 12°C
Humedad: 88%
Barómetro: 1007 hPa
Nubes: Poco nuboso
Visibilidad: 10 km
Detalles de la nube: Poco nuboso 671 m
2018/11/18 18:00 LEPA 181800Z 08004KT 060V120 9999 FEW022 14/12 Q1007 NOSIG
 
LFMP - Perpignan/Rivesa, France
Distancia desde la estación: NE 222km
Actualizado: 18/11/2018 19:00
Thunderstorm
Thunderstorm
 Viento del varia
Viento: varia 6 km/h
Temperatura: 12°C
Rocío: 9°C
Humedad: 82%
Barómetro: 1013 hPa
Nubes: Thunderstorm
Visibilidad: 10 km
Detalles de la nube: Muy nuboso 945 m
Muy nuboso 1158 m
Muy nuboso 1402 m
2018/11/18 18:00 LFMP 181800Z AUTO VRB03KT 9999 BKN031/// BKN038/// BKN046/// ///TCU 12/09 Q1013 BECMG BKN030 OVC050
LEVC - Valencia (civ/Mi, Spain
Distancia desde la estación: SO 232km
Actualizado: 18/11/2018 19:00
Lluvia débil, Parcialmente nuboso
Lluvia débil, Parcialmente nuboso
 Viento del E
Viento: E 9 km/h
Temperatura: 15°C
Rocío: 12°C
Humedad: 82%
Barómetro: 1006 hPa
Resumen: Lluvia débil
Nubes: Parcialmente nuboso
Visibilidad: 10 km
Detalles de la nube: Parcialmente nuboso 762 m
Parcialmente nuboso 1524 m
2018/11/18 18:00 LEVC 181800Z 09005KT 030V130 9999 -RA SCT025 SCT050 15/12 Q1006 NOSIG
 
LFMK - Carcassonne/Salv, France
Distancia desde la estación: NNE 248km
Actualizado: 18/11/2018 19:00
Cubierto
Cubierto
 Viento del E
Viento: E 19 km/h
Temperatura: 9°C
Wind Chill: 6°C
Rocío: 7°C
Humedad: 87%
Barómetro: 1012 hPa
Nubes: Cubierto
Visibilidad: 10 km
Detalles de la nube: Poco nuboso 1006 m
Cubierto 1829 m
2018/11/18 18:00 LFMK 181800Z AUTO 09010KT 9999 FEW033 OVC060 09/07 Q1012 NOSIG
LFBT - Tarbes/Ossun, France
Distancia desde la estación: NNO 249km
Actualizado: 18/11/2018 19:00
Cubierto
Cubierto
 Viento del SSO
Viento: SSO 6 km/h
Temperatura: 8°C
Rocío: 7°C
Humedad: 93%
Barómetro: 1008 hPa
Nubes: Cubierto
Visibilidad: 10 km
Detalles de la nube: Cubierto 3353 m
2018/11/18 18:00 LFBT 181800Z AUTO 20003KT 9999 OVC110 08/07 Q1008 NOSIG
 
LEIB - Ibiza/Es Codola, Spain
Distancia desde la estación: S 252km
Actualizado: 18/11/2018 19:00
Poco nuboso
Poco nuboso
 Viento del E
Viento: E 26 km/h
Temperatura: 17°C
Rocío: 12°C
Humedad: 73%
Barómetro: 1005 hPa
Nubes: Poco nuboso
Visibilidad: 10 km
Detalles de la nube: Poco nuboso 671 m
2018/11/18 18:00 LEIB 181800Z 08014KT 050V110 9999 FEW022 17/12 Q1005 NOSIG
LFBO - Toulouse/Blagnac, France
Distancia desde la estación: N 277km
Actualizado: 18/11/2018 19:00
Poco nuboso
Poco nuboso
 Viento del ESE
Viento: ESE 31 km/h, Racha: 52 km/h
Temperatura: 12°C
Rocío: 6°C
Humedad: 67%
Barómetro: 1010 hPa
Nubes: Poco nuboso
Visibilidad: 10 km
Detalles de la nube: Poco nuboso 335 m
2018/11/18 18:00 LFBO 181800Z AUTO 11017G28KT 080V140 9999 FEW011 12/06 Q1010 BECMG 10012KT
 
LFCK - Castres-Mazamet, France
Distancia desde la estación: NNE 282km
Actualizado: 18/11/2018 19:00
Despejado
Despejado
 Viento del ESE
Viento: ESE 39 km/h
Temperatura: 10°C
Wind Chill: 6°C
Rocío: 5°C
Humedad: 71%
Barómetro: 1012 hPa
Resumen: Despejado
Visibilidad: greater than 10 km
2018/11/18 18:00 LFCK 181800Z AUTO 12021KT CAVOK 10/05 Q1012 BECMG 11023G35KT
LFBP - Pont-Long-Uzein/, France
Distancia desde la estación: NNO 284km
Actualizado: 18/11/2018 19:00
Despejado
Despejado
 Viento del varia
Viento: varia 4 km/h
Temperatura: 10°C
Rocío: 9°C
Humedad: 94%
Barómetro: 1009 hPa
Resumen: Despejado
Visibilidad: greater than 10 km
2018/11/18 18:00 LFBP 181800Z AUTO VRB02KT CAVOK 10/09 Q1009 NOSIG
 
LEMH - Mahon/Menorca Is, Spain
Distancia desde la estación: ESE 288km
Actualizado: 18/11/2018 19:00
Parcialmente nuboso
Parcialmente nuboso
 Viento del ESE
Viento: ESE 22 km/h
Temperatura: 15°C
Rocío: 11°C
Humedad: 77%
Barómetro: 1008 hPa
Nubes: Parcialmente nuboso
Visibilidad: 10 km
Detalles de la nube: Parcialmente nuboso 762 m
2018/11/18 18:00 LEMH 181800Z 11012KT 080V140 9999 SCT025 15/11 Q1008
LFMU - Beziers/Vias, France
Distancia desde la estación: NE 299km
Actualizado: 18/11/2018 19:00
Cubierto
Cubierto
 Viento del NE
Viento: NE 11 km/h
Temperatura: 11°C
Rocío: 5°C
Humedad: 67%
Barómetro: 1014 hPa
Nubes: Cubierto
Visibilidad: 10 km
Detalles de la nube: Muy nuboso 1433 m
Cubierto 1707 m
2018/11/18 18:00 LFMU 181800Z AUTO 05006KT 9999 BKN047 OVC056 11/05 Q1014 NOSIG

 ♦     ♦     ♦     Nunca base decisiones importantes en estos datos u otros obtenidos de Internet     ♦     ♦     ♦